Time;durP1;ratioP1;P1;durP2;ratioP2;P2;SDS_P1;SDS_P2;PMS_P1;PMS_P2;Temp;Humidity;BMP_temperature;BMP_pressure;BME280_temperature;BME280_humidity;BME280_pressure;Samples;Min_cycle;Max_cycle;Signal;HPM_P1;HPM_P2
2022/01/04 00:01:14;;;;;;;3.55;2.40;;;;;;;;;;4992934;28;20038;-83
2022/01/04 00:03:42;;;;;;;7.85;3.38;;;;;;;;;;5001017;28;20038;-84
2022/01/04 00:06:09;;;;;;;6.85;2.65;;;;;;;;;;5002305;28;20022;-82
2022/01/04 00:08:35;;;;;;;3.35;2.40;;;;;;;;;;5000354;28;20038;-83
2022/01/04 00:11:19;;;;;;;5.93;3.28;;;;;;;;;;5006611;28;20025;-81
2022/01/04 00:13:45;;;;;;;4.05;2.65;;;;;;;;;;5000641;28;20042;-84
2022/01/04 00:16:11;;;;;;;6.22;2.70;;;;;;;;;;5000893;28;20026;-83
2022/01/04 00:18:38;;;;;;;6.53;3.08;;;;;;;;;;5001194;28;20110;-83
2022/01/04 00:21:04;;;;;;;4.72;3.08;;;;;;;;;;4999989;28;20026;-82
2022/01/04 00:23:30;;;;;;;6.15;2.80;;;;;;;;;;4999696;28;20088;-83
2022/01/04 00:25:58;;;;;;;6.07;2.85;;;;;;;;;;4999625;28;20072;-85
2022/01/04 00:28:24;;;;;;;5.50;3.15;;;;;;;;;;5000712;28;20027;-84
2022/01/04 00:30:50;;;;;;;5.18;2.78;;;;;;;;;;4999528;28;20050;-84
2022/01/04 00:33:17;;;;;;;9.40;2.97;;;;;;;;;;4999181;28;20066;-84
2022/01/04 00:35:43;;;;;;;4.75;3.42;;;;;;;;;;5000101;28;20062;-84
2022/01/04 00:38:09;;;;;;;5.43;3.42;;;;;;;;;;5000902;28;20030;-83
2022/01/04 00:40:36;;;;;;;4.78;2.80;;;;;;;;;;5000025;28;20089;-82
2022/01/04 00:43:02;;;;;;;4.65;2.75;;;;;;;;;;4999126;28;20117;-83
2022/01/04 00:45:31;;;;;;;3.53;3.00;;;;;;;;;;4998510;28;20085;-83
2022/01/04 00:50:24;;;;;;;5.80;2.90;;;;;;;;;;4999222;28;20475;-84
2022/01/04 00:52:50;;;;;;;7.03;2.90;;;;;;;;;;4998957;28;20058;-83
2022/01/04 00:55:16;;;;;;;5.45;3.28;;;;;;;;;;4999445;28;20121;-84
2022/01/04 00:57:42;;;;;;;4.63;2.78;;;;;;;;;;4996911;28;20109;-83
2022/01/04 01:00:10;;;;;;;4.32;3.15;;;;;;;;;;4996423;28;20049;-83
2022/01/04 01:02:36;;;;;;;9.60;3.28;;;;;;;;;;4996125;28;20073;-83
2022/01/04 01:05:03;;;;;;;4.95;3.22;;;;;;;;;;4997629;28;20026;-82
2022/01/04 01:07:29;;;;;;;4.60;2.95;;;;;;;;;;4995886;28;20018;-83
2022/01/04 01:10:22;;;;;;;5.00;2.78;;;;;;;;;;4997614;28;20054;-84
2022/01/04 01:12:41;;;;;;;4.95;2.55;;;;;;;;;;4997318;28;20026;-84
2022/01/04 01:15:07;;;;;;;4.30;2.80;;;;;;;;;;4996950;28;20027;-84
2022/01/04 01:17:34;;;;;;;8.55;3.33;;;;;;;;;;4994992;28;20018;-82
2022/01/04 01:20:00;;;;;;;7.47;3.13;;;;;;;;;;4997107;28;20114;-82
2022/01/04 01:22:26;;;;;;;6.82;3.10;;;;;;;;;;4997500;28;20034;-79
2022/01/04 01:24:52;;;;;;;7.57;2.90;;;;;;;;;;4997429;28;20027;-82
2022/01/04 01:27:18;;;;;;;6.03;3.42;;;;;;;;;;4995532;28;20025;-82
2022/01/04 01:29:45;;;;;;;4.53;3.40;;;;;;;;;;4995804;28;20180;-82
2022/01/04 01:32:11;;;;;;;4.72;3.00;;;;;;;;;;4996687;28;20475;-83
2022/01/04 01:34:37;;;;;;;7.93;3.63;;;;;;;;;;5001328;28;20540;-82
2022/01/04 01:37:03;;;;;;;10.13;3.50;;;;;;;;;;5001947;28;20022;-81
2022/01/04 01:39:29;;;;;;;5.35;3.13;;;;;;;;;;4998757;28;20022;-84
2022/01/04 01:41:55;;;;;;;6.88;3.20;;;;;;;;;;4997204;28;20092;-83
2022/01/04 01:44:22;;;;;;;5.05;3.15;;;;;;;;;;4997317;28;20112;-83
2022/01/04 01:46:48;;;;;;;9.50;3.28;;;;;;;;;;5004062;28;20010;-83
2022/01/04 01:49:14;;;;;;;9.27;3.63;;;;;;;;;;5009707;28;20036;-83
2022/01/04 01:51:40;;;;;;;8.82;3.05;;;;;;;;;;5009864;28;20026;-83
2022/01/04 01:54:06;;;;;;;7.03;2.88;;;;;;;;;;5010838;28;20030;-81
2022/01/04 01:56:32;;;;;;;13.38;3.75;;;;;;;;;;5010267;28;20030;-82
2022/01/04 01:58:59;;;;;;;7.68;3.47;;;;;;;;;;5001322;28;20034;-83
2022/01/04 02:01:25;;;;;;;8.77;3.55;;;;;;;;;;4998761;28;20030;-83
2022/01/04 02:03:51;;;;;;;7.57;3.58;;;;;;;;;;4998292;28;20471;-83
2022/01/04 02:06:18;;;;;;;8.45;3.33;;;;;;;;;;4997774;28;20113;-84
2022/01/04 02:08:45;;;;;;;6.43;3.47;;;;;;;;;;4999393;28;20042;-83
2022/01/04 02:11:12;;;;;;;6.97;3.90;;;;;;;;;;4999023;28;20030;-84
2022/01/04 02:13:38;;;;;;;4.00;3.03;;;;;;;;;;5001618;28;20050;-82
2022/01/04 02:16:04;;;;;;;8.02;3.28;;;;;;;;;;5008286;28;20034;-84
2022/01/04 02:18:30;;;;;;;9.25;3.35;;;;;;;;;;5006685;28;20034;-84
2022/01/04 02:20:56;;;;;;;5.05;3.08;;;;;;;;;;5007458;28;20033;-82
2022/01/04 02:23:22;;;;;;;8.43;3.65;;;;;;;;;;5001238;28;20019;-83
2022/01/04 02:25:49;;;;;;;5.78;3.28;;;;;;;;;;5009446;28;20038;-83
2022/01/04 02:28:18;;;;;;;8.02;3.55;;;;;;;;;;5017304;28;20030;-85
2022/01/04 02:30:44;;;;;;;5.85;3.40;;;;;;;;;;5018172;28;20033;-83
2022/01/04 02:33:10;;;;;;;7.60;3.60;;;;;;;;;;5017210;28;20036;-83
2022/01/04 02:35:36;;;;;;;5.18;3.17;;;;;;;;;;4993540;28;20022;-82
2022/01/04 02:38:03;;;;;;;7.35;3.15;;;;;;;;;;4991548;28;20478;-81
2022/01/04 02:40:31;;;;;;;9.50;3.30;;;;;;;;;;4992907;28;20030;-80
2022/01/04 02:42:57;;;;;;;7.32;3.90;;;;;;;;;;4992288;28;20037;-82
2022/01/04 02:45:23;;;;;;;7.70;2.78;;;;;;;;;;4992236;28;20375;-82
2022/01/04 02:47:49;;;;;;;6.47;3.30;;;;;;;;;;4993271;28;20452;-82
2022/01/04 02:50:15;;;;;;;5.97;3.08;;;;;;;;;;4993518;28;20097;-82
2022/01/04 02:52:41;;;;;;;7.28;2.85;;;;;;;;;;4992146;28;20026;-81
2022/01/04 02:55:09;;;;;;;3.38;2.30;;;;;;;;;;4992823;28;20034;-81
2022/01/04 02:57:35;;;;;;;3.55;2.40;;;;;;;;;;4993591;28;20366;-81
2022/01/04 03:00:01;;;;;;;4.57;2.58;;;;;;;;;;4994229;28;20029;-81
2022/01/04 03:02:27;;;;;;;3.25;2.70;;;;;;;;;;4994297;28;20029;-81
2022/01/04 03:04:53;;;;;;;4.53;2.40;;;;;;;;;;4995862;28;20030;-82
2022/01/04 03:07:21;;;;;;;4.07;2.55;;;;;;;;;;4996016;28;20050;-81
2022/01/04 03:09:47;;;;;;;4.90;3.00;;;;;;;;;;4997223;28;20022;-83
2022/01/04 03:12:13;;;;;;;3.70;2.92;;;;;;;;;;4996230;28;20541;-82
2022/01/04 03:14:39;;;;;;;3.42;2.58;;;;;;;;;;4995859;28;20030;-82
2022/01/04 03:17:05;;;;;;;4.28;2.17;;;;;;;;;;4995724;28;20466;-82
2022/01/04 03:19:31;;;;;;;2.30;1.95;;;;;;;;;;4995741;28;20046;-82
2022/01/04 03:21:57;;;;;;;4.22;2.60;;;;;;;;;;4994362;28;20125;-83
2022/01/04 03:24:23;;;;;;;7.05;2.45;;;;;;;;;;4994689;28;20501;-83
2022/01/04 03:26:49;;;;;;;2.55;2.03;;;;;;;;;;4996214;28;20097;-84
2022/01/04 03:29:16;;;;;;;3.60;2.13;;;;;;;;;;4996300;28;20023;-82
2022/01/04 03:31:42;;;;;;;4.72;2.05;;;;;;;;;;4994997;28;20398;-83
2022/01/04 03:34:08;;;;;;;7.95;2.20;;;;;;;;;;4997098;28;20026;-81
2022/01/04 03:36:35;;;;;;;8.30;2.30;;;;;;;;;;4994710;28;20050;-83
2022/01/04 03:39:04;;;;;;;6.18;2.45;;;;;;;;;;4997146;28;20037;-82
2022/01/04 03:41:31;;;;;;;2.60;2.00;;;;;;;;;;4996656;28;20053;-82
2022/01/04 03:43:57;;;;;;;5.05;1.83;;;;;;;;;;4997130;28;20026;-83
2022/01/04 03:46:23;;;;;;;3.20;2.38;;;;;;;;;;4996935;28;20038;-81
2022/01/04 03:48:49;;;;;;;4.22;1.80;;;;;;;;;;4996816;28;20022;-82
2022/01/04 03:51:16;;;;;;;2.78;1.88;;;;;;;;;;4999354;28;20022;-80
2022/01/04 03:53:42;;;;;;;3.22;1.90;;;;;;;;;;4999928;28;20030;-83
2022/01/04 03:56:08;;;;;;;3.05;1.98;;;;;;;;;;4998638;28;20030;-82
2022/01/04 03:58:34;;;;;;;3.28;1.70;;;;;;;;;;4999563;28;20085;-82
2022/01/04 04:01:01;;;;;;;3.17;1.40;;;;;;;;;;5000132;28;20038;-83
2022/01/04 04:03:27;;;;;;;2.03;1.50;;;;;;;;;;4999581;28;20025;-83
2022/01/04 04:05:53;;;;;;;2.88;1.60;;;;;;;;;;5000190;28;20022;-84
2022/01/04 04:08:19;;;;;;;2.35;1.52;;;;;;;;;;5000090;28;20081;-83
2022/01/04 04:10:45;;;;;;;2.13;1.63;;;;;;;;;;4999537;28;20027;-82
2022/01/04 04:13:11;;;;;;;4.35;1.60;;;;;;;;;;4999084;28;20057;-82
2022/01/04 04:15:40;;;;;;;2.55;1.50;;;;;;;;;;4999585;28;20027;-83
2022/01/04 04:18:07;;;;;;;3.35;1.52;;;;;;;;;;4998526;28;20478;-83
2022/01/04 04:20:33;;;;;;;4.45;1.48;;;;;;;;;;4997697;28;20038;-82
2022/01/04 04:22:59;;;;;;;2.90;1.13;;;;;;;;;;4998279;28;20049;-83
2022/01/04 04:25:25;;;;;;;2.58;1.20;;;;;;;;;;4998704;28;20471;-84
2022/01/04 04:27:51;;;;;;;1.38;1.17;;;;;;;;;;4997771;28;20037;-83
2022/01/04 04:30:17;;;;;;;2.85;1.58;;;;;;;;;;4997775;28;20026;-81
2022/01/04 04:32:43;;;;;;;3.50;1.20;;;;;;;;;;4997402;28;20031;-83
2022/01/04 04:35:09;;;;;;;2.08;1.20;;;;;;;;;;4999015;28;20022;-84
2022/01/04 04:37:35;;;;;;;2.03;1.42;;;;;;;;;;4997259;28;20117;-85
2022/01/04 04:40:01;;;;;;;2.20;1.00;;;;;;;;;;4998942;28;20030;-82
2022/01/04 04:42:27;;;;;;;1.27;1.10;;;;;;;;;;4998973;28;20522;-85
2022/01/04 04:44:53;;;;;;;1.58;1.02;;;;;;;;;;4999115;28;20069;-82
2022/01/04 04:47:19;;;;;;;1.95;1.00;;;;;;;;;;4996789;28;20641;-84
2022/01/04 04:49:45;;;;;;;2.90;1.00;;;;;;;;;;4998059;28;20030;-83
2022/01/04 04:52:11;;;;;;;3.22;1.35;;;;;;;;;;4997052;28;20455;-84
2022/01/04 04:54:37;;;;;;;2.42;1.00;;;;;;;;;;4998831;28;20034;-82
2022/01/04 04:57:03;;;;;;;1.58;0.90;;;;;;;;;;4996911;28;20037;-83
2022/01/04 04:59:29;;;;;;;1.38;0.90;;;;;;;;;;4998402;28;20413;-80
2022/01/04 05:01:55;;;;;;;0.82;0.80;;;;;;;;;;4984372;28;20041;-83
2022/01/04 05:04:21;;;;;;;2.72;1.20;;;;;;;;;;4995483;28;20054;-82
2022/01/04 05:06:48;;;;;;;1.48;1.10;;;;;;;;;;5004668;28;20022;-82
2022/01/04 05:09:14;;;;;;;1.60;1.02;;;;;;;;;;4999839;28;20072;-83
2022/01/04 05:11:40;;;;;;;1.38;1.23;;;;;;;;;;4991534;28;20026;-82
2022/01/04 05:14:06;;;;;;;1.30;0.90;;;;;;;;;;4999035;28;20038;-82
2022/01/04 05:16:32;;;;;;;1.30;0.90;;;;;;;;;;4997268;28;20681;-82
2022/01/04 05:18:58;;;;;;;1.50;1.00;;;;;;;;;;4998949;28;20477;-82
2022/01/04 05:21:24;;;;;;;1.17;0.90;;;;;;;;;;4997910;28;20129;-83
2022/01/04 05:23:50;;;;;;;1.63;0.95;;;;;;;;;;4997563;28;20027;-83
2022/01/04 05:26:16;;;;;;;1.67;0.98;;;;;;;;;;4997739;28;20022;-82
2022/01/04 05:28:45;;;;;;;1.15;1.02;;;;;;;;;;4998547;28;20034;-83
2022/01/04 05:31:11;;;;;;;1.50;1.00;;;;;;;;;;4998547;28;20088;-82
2022/01/04 05:33:37;;;;;;;1.20;0.98;;;;;;;;;;4998513;28;20037;-83
2022/01/04 05:36:03;;;;;;;1.05;0.80;;;;;;;;;;4998778;28;20030;-82
2022/01/04 05:38:29;;;;;;;1.60;1.10;;;;;;;;;;4997290;28;20034;-81
2022/01/04 05:40:56;;;;;;;1.35;1.10;;;;;;;;;;4998222;28;20118;-82
2022/01/04 05:43:21;;;;;;;2.58;1.40;;;;;;;;;;4996247;28;20456;-82
2022/01/04 05:45:48;;;;;;;5.00;1.08;;;;;;;;;;4998036;28;20112;-83
2022/01/04 05:48:13;;;;;;;2.00;1.25;;;;;;;;;;4996628;28;20022;-82
2022/01/04 05:50:39;;;;;;;1.27;1.17;;;;;;;;;;4996933;28;20370;-83
2022/01/04 05:53:06;;;;;;;1.40;1.15;;;;;;;;;;4996505;28;20034;-83
2022/01/04 05:55:32;;;;;;;1.42;1.25;;;;;;;;;;4996571;28;20036;-83
2022/01/04 05:57:58;;;;;;;1.80;1.13;;;;;;;;;;4997667;28;20101;-82
2022/01/04 06:00:24;;;;;;;2.72;1.30;;;;;;;;;;4995849;28;20049;-82
2022/01/04 06:02:50;;;;;;;1.33;1.02;;;;;;;;;;4995940;28;20026;-82
2022/01/04 06:05:16;;;;;;;2.35;1.25;;;;;;;;;;4997151;28;20096;-82
2022/01/04 06:07:42;;;;;;;2.97;1.13;;;;;;;;;;4994836;28;20023;-81
2022/01/04 06:10:09;;;;;;;4.47;1.40;;;;;;;;;;4995729;28;20028;-83
2022/01/04 06:15:05;;;;;;;3.08;1.20;;;;;;;;;;4997428;28;20037;-80
2022/01/04 06:17:32;;;;;;;2.45;1.55;;;;;;;;;;4996798;28;20449;-83
2022/01/04 06:19:59;;;;;;;1.40;1.23;;;;;;;;;;4996438;28;20066;-83
2022/01/04 06:22:26;;;;;;;2.22;1.30;;;;;;;;;;4997285;28;20132;-82
2022/01/04 06:24:52;;;;;;;2.40;1.80;;;;;;;;;;4995224;28;20037;-85
2022/01/04 06:27:18;;;;;;;1.77;1.40;;;;;;;;;;4995648;28;20118;-83
2022/01/04 06:29:44;;;;;;;1.92;1.38;;;;;;;;;;4996298;28;20026;-82
2022/01/04 06:32:11;;;;;;;2.72;1.20;;;;;;;;;;4994706;28;20449;-83
2022/01/04 06:34:39;;;;;;;2.55;1.48;;;;;;;;;;4996562;28;20038;-82
2022/01/04 06:37:05;;;;;;;1.80;1.50;;;;;;;;;;4996115;28;20130;-83
2022/01/04 06:39:31;;;;;;;1.65;1.38;;;;;;;;;;4996049;28;20418;-84
2022/01/04 06:41:57;;;;;;;1.38;1.27;;;;;;;;;;4991175;28;20541;-84
2022/01/04 06:44:23;;;;;;;1.05;0.93;;;;;;;;;;4995253;28;20081;-83
2022/01/04 06:46:49;;;;;;;1.85;1.33;;;;;;;;;;4995267;28;20026;-82
2022/01/04 06:49:16;;;;;;;1.52;1.42;;;;;;;;;;4996751;28;20031;-83
2022/01/04 06:51:43;;;;;;;2.45;1.40;;;;;;;;;;4995051;28;20022;-86
2022/01/04 06:54:10;;;;;;;2.60;1.55;;;;;;;;;;4997186;28;20490;-83
2022/01/04 06:56:36;;;;;;;1.50;1.30;;;;;;;;;;5000288;28;20032;-82
2022/01/04 06:59:03;;;;;;;3.72;1.83;;;;;;;;;;4994261;28;20033;-80
2022/01/04 07:01:29;;;;;;;3.08;1.33;;;;;;;;;;4995660;28;20113;-81
2022/01/04 07:03:55;;;;;;;3.28;1.50;;;;;;;;;;4994955;28;20034;-81
2022/01/04 07:06:21;;;;;;;2.17;1.17;;;;;;;;;;4993865;28;20041;-82
2022/01/04 07:08:47;;;;;;;2.95;1.10;;;;;;;;;;4993704;28;20502;-81
2022/01/04 07:11:14;;;;;;;3.67;1.80;;;;;;;;;;4995215;28;20027;-80
2022/01/04 07:13:40;;;;;;;3.20;1.58;;;;;;;;;;4995771;28;20026;-81
2022/01/04 07:16:06;;;;;;;2.75;1.17;;;;;;;;;;4995279;28;20082;-81
2022/01/04 07:18:33;;;;;;;5.32;1.48;;;;;;;;;;4995485;28;20502;-83
2022/01/04 07:20:59;;;;;;;3.83;1.15;;;;;;;;;;4995972;28;20038;-83
2022/01/04 07:23:25;;;;;;;2.28;1.40;;;;;;;;;;4991776;28;20509;-81
2022/01/04 07:25:52;;;;;;;1.73;1.15;;;;;;;;;;4999116;28;20030;-79
2022/01/04 07:28:18;;;;;;;2.10;1.20;;;;;;;;;;4999393;28;20465;-80
2022/01/04 07:30:44;;;;;;;3.38;1.40;;;;;;;;;;4999336;28;20117;-80
2022/01/04 07:33:10;;;;;;;3.08;1.13;;;;;;;;;;5000021;28;20035;-81
2022/01/04 07:35:36;;;;;;;2.00;1.52;;;;;;;;;;4997909;28;20026;-81
2022/01/04 07:38:02;;;;;;;3.10;1.70;;;;;;;;;;4999074;28;20470;-80
2022/01/04 07:40:28;;;;;;;2.58;0.80;;;;;;;;;;4998207;28;20117;-81
2022/01/04 07:42:59;;;;;;;1.60;1.30;;;;;;;;;;4998126;28;20126;-82
2022/01/04 07:45:26;;;;;;;1.80;1.08;;;;;;;;;;5001817;28;20026;-82
2022/01/04 07:47:52;;;;;;;2.20;1.25;;;;;;;;;;5011432;28;20022;-80
2022/01/04 07:50:18;;;;;;;1.17;1.00;;;;;;;;;;5016279;28;20015;-81
2022/01/04 07:52:44;;;;;;;1.55;1.10;;;;;;;;;;5017980;28;20053;-82
2022/01/04 07:55:10;;;;;;;1.55;1.10;;;;;;;;;;5004614;28;20030;-81
2022/01/04 07:57:36;;;;;;;2.95;1.10;;;;;;;;;;4987644;28;20041;-82
2022/01/04 08:00:04;;;;;;;1.42;1.10;;;;;;;;;;4994669;28;20023;-81
2022/01/04 08:02:30;;;;;;;1.73;1.20;;;;;;;;;;4996092;28;20104;-81
2022/01/04 08:04:56;;;;;;;2.83;1.48;;;;;;;;;;4994314;28;20498;-82
2022/01/04 08:07:22;;;;;;;4.40;1.00;;;;;;;;;;4996155;28;20026;-80
2022/01/04 08:09:48;;;;;;;2.17;1.33;;;;;;;;;;4994965;28;20030;-81
2022/01/04 08:12:15;;;;;;;3.95;1.20;;;;;;;;;;4996487;28;20022;-82
2022/01/04 08:14:41;;;;;;;1.45;1.23;;;;;;;;;;4999095;28;20037;-82
2022/01/04 08:17:07;;;;;;;1.73;1.10;;;;;;;;;;4996334;28;20026;-81
2022/01/04 08:19:33;;;;;;;1.30;1.20;;;;;;;;;;4991349;28;20034;-81
2022/01/04 08:21:59;;;;;;;2.05;1.25;;;;;;;;;;4996914;28;20373;-82
2022/01/04 08:24:25;;;;;;;2.03;1.00;;;;;;;;;;4996064;28;20556;-81
2022/01/04 08:26:51;;;;;;;3.63;1.70;;;;;;;;;;4982839;28;20030;-83
2022/01/04 08:29:17;;;;;;;2.75;1.50;;;;;;;;;;4998949;28;20022;-84
2022/01/04 08:31:43;;;;;;;5.65;1.77;;;;;;;;;;4997557;28;20030;-84
2022/01/04 08:34:09;;;;;;;2.58;1.50;;;;;;;;;;5003014;28;20033;-85
2022/01/04 08:36:37;;;;;;;5.45;1.30;;;;;;;;;;5005370;28;20026;-85
2022/01/04 08:39:03;;;;;;;7.72;1.92;;;;;;;;;;4999744;28;20109;-84
2022/01/04 08:41:29;;;;;;;1.60;1.48;;;;;;;;;;4999638;28;20035;-85
2022/01/04 08:43:55;;;;;;;2.40;1.42;;;;;;;;;;5000778;28;20085;-85
2022/01/04 08:46:22;;;;;;;2.63;1.33;;;;;;;;;;5000062;28;20050;-85
2022/01/04 08:48:48;;;;;;;3.85;2.08;;;;;;;;;;4997822;28;20027;-84
2022/01/04 08:51:15;;;;;;;3.10;1.63;;;;;;;;;;4999988;28;20026;-84
2022/01/04 08:53:41;;;;;;;4.70;1.45;;;;;;;;;;4998723;28;20042;-85
2022/01/04 08:56:07;;;;;;;4.10;1.58;;;;;;;;;;4997177;28;20034;-81
2022/01/04 08:58:33;;;;;;;2.05;1.42;;;;;;;;;;4998577;28;20046;-82
2022/01/04 09:01:02;;;;;;;2.53;1.50;;;;;;;;;;5000319;28;20034;-83
2022/01/04 09:03:30;;;;;;;6.57;1.65;;;;;;;;;;5000714;28;20058;-84
2022/01/04 09:05:56;;;;;;;4.53;1.60;;;;;;;;;;5010036;28;20080;-82
2022/01/04 09:08:22;;;;;;;5.88;1.70;;;;;;;;;;5003515;28;20026;-82
2022/01/04 09:10:48;;;;;;;7.70;2.00;;;;;;;;;;4997173;28;20367;-82
2022/01/04 09:13:20;;;;;;;7.95;1.80;;;;;;;;;;4985080;28;20069;-82
2022/01/04 09:18:42;;;;;;;3.42;1.80;;;;;;;;;;4998696;28;20022;-83
2022/01/04 09:18:49;;;;;;;3.38;1.90;;;;;;;;;;5009591;28;20378;-82
2022/01/04 09:21:41;;;;;;;3.63;1.67;;;;;;;;;;5010660;28;20069;-83
2022/01/04 09:24:07;;;;;;;5.80;1.92;;;;;;;;;;5001177;28;20068;-83
2022/01/04 09:26:33;;;;;;;6.00;2.00;;;;;;;;;;4998947;28;20363;-84
2022/01/04 09:28:59;;;;;;;2.60;1.50;;;;;;;;;;5000337;28;20090;-82
2022/01/04 09:31:26;;;;;;;3.50;1.63;;;;;;;;;;4999680;28;20070;-84
2022/01/04 09:33:53;;;;;;;5.18;1.73;;;;;;;;;;4999514;28;20038;-83
2022/01/04 09:36:19;;;;;;;3.08;1.80;;;;;;;;;;5002088;28;20033;-84
2022/01/04 09:38:45;;;;;;;2.63;1.48;;;;;;;;;;5003554;28;20026;-83
2022/01/04 09:41:11;;;;;;;2.53;1.35;;;;;;;;;;5007558;28;20026;-83
2022/01/04 09:43:38;;;;;;;2.00;1.30;;;;;;;;;;5007945;28;20034;-83
2022/01/04 09:46:04;;;;;;;10.15;3.00;;;;;;;;;;5004384;28;20078;-82
2022/01/04 09:48:29;;;;;;;2.40;1.67;;;;;;;;;;4998061;28;20027;-83
2022/01/04 09:50:57;;;;;;;2.85;1.73;;;;;;;;;;4999150;28;20029;-83
2022/01/04 09:53:23;;;;;;;2.65;1.60;;;;;;;;;;4998000;28;20030;-84
2022/01/04 09:55:51;;;;;;;3.75;1.80;;;;;;;;;;4999451;28;20492;-84
2022/01/04 09:58:18;;;;;;;2.08;1.45;;;;;;;;;;4999423;28;20030;-82
2022/01/04 10:00:44;;;;;;;1.35;1.25;;;;;;;;;;4999946;28;20030;-83
2022/01/04 10:03:15;;;;;;;1.48;1.38;;;;;;;;;;4998520;28;20030;-84
2022/01/04 10:05:41;;;;;;;4.80;1.38;;;;;;;;;;4999689;28;20085;-83
2022/01/04 10:08:08;;;;;;;3.38;1.40;;;;;;;;;;4998648;28;20486;-84
2022/01/04 10:10:36;;;;;;;2.90;1.58;;;;;;;;;;4996586;28;20037;-83
2022/01/04 10:13:03;;;;;;;3.33;1.80;;;;;;;;;;4998959;28;20157;-82
2022/01/04 10:15:31;;;;;;;3.05;1.30;;;;;;;;;;4998964;28;20366;-84
2022/01/04 10:17:57;;;;;;;2.40;1.25;;;;;;;;;;4998408;28;20090;-83
2022/01/04 10:20:23;;;;;;;6.72;1.35;;;;;;;;;;4997789;28;20049;-83
2022/01/04 10:22:50;;;;;;;2.67;1.42;;;;;;;;;;4983596;28;20023;-84
2022/01/04 10:25:17;;;;;;;2.58;1.60;;;;;;;;;;4979218;28;20037;-84
2022/01/04 10:27:50;;;;;;;6.25;1.40;;;;;;;;;;4994228;28;20455;-85
2022/01/04 10:30:23;;;;;;;4.07;1.67;;;;;;;;;;4997454;28;20034;-84
2022/01/04 10:32:52;;;;;;;4.03;1.75;;;;;;;;;;4998031;28;20033;-81
2022/01/04 10:35:23;;;;;;;2.33;1.60;;;;;;;;;;4996087;28;20104;-80
2022/01/04 10:37:49;;;;;;;2.35;1.45;;;;;;;;;;4996834;28;20431;-83
2022/01/04 10:40:16;;;;;;;2.38;1.42;;;;;;;;;;4996409;28;20533;-82
2022/01/04 10:42:42;;;;;;;2.30;1.38;;;;;;;;;;4999827;28;20031;-80
2022/01/04 10:45:24;;;;;;;6.15;1.67;;;;;;;;;;4997852;28;20034;-82
2022/01/04 10:47:50;;;;;;;3.35;1.83;;;;;;;;;;4997402;28;20033;-82
2022/01/04 10:50:30;;;;;;;2.53;1.70;;;;;;;;;;5008848;23;20047;-87
2022/01/04 10:52:56;;;;;;;6.60;1.70;;;;;;;;;;4975195;28;20529;-86
2022/01/04 10:55:22;;;;;;;4.97;1.40;;;;;;;;;;4974253;28;20057;-86
2022/01/04 10:57:48;;;;;;;3.38;1.70;;;;;;;;;;4974485;28;20758;-86
2022/01/04 11:00:15;;;;;;;8.05;1.75;;;;;;;;;;4982772;28;20482;-86
2022/01/04 11:02:41;;;;;;;2.10;1.58;;;;;;;;;;4993829;28;20038;-87
2022/01/04 11:05:14;;;;;;;5.07;1.67;;;;;;;;;;4968868;28;20027;-86
2022/01/04 11:07:57;;;;;;;4.30;1.67;;;;;;;;;;4961423;28;20063;-86
2022/01/04 11:10:23;;;;;;;2.25;1.70;;;;;;;;;;4962069;28;20059;-86
2022/01/04 11:12:49;;;;;;;9.70;1.70;;;;;;;;;;4961620;28;20531;-86
2022/01/04 11:15:15;;;;;;;3.55;1.50;;;;;;;;;;4962712;28;20051;-84
2022/01/04 11:17:42;;;;;;;2.85;1.85;;;;;;;;;;4963529;28;20038;-85
2022/01/04 11:20:08;;;;;;;2.35;1.50;;;;;;;;;;4962538;28;20031;-86
2022/01/04 11:22:36;;;;;;;3.15;1.92;;;;;;;;;;4961413;28;20491;-85
2022/01/04 11:25:03;;;;;;;4.05;1.45;;;;;;;;;;4961938;28;20039;-86
2022/01/04 11:27:31;;;;;;;2.38;0.98;;;;;;;;;;4961740;28;20456;-85
2022/01/04 11:29:58;;;;;;;0.93;0.70;;;;;;;;;;4962761;28;20050;-86
2022/01/04 11:32:25;;;;;;;0.73;0.70;;;;;;;;;;4974112;28;20035;-87
2022/01/04 11:34:51;;;;;;;2.17;0.70;;;;;;;;;;4980275;28;20483;-85
2022/01/04 11:37:22;;;;;;;0.60;0.60;;;;;;;;;;4981028;28;20101;-85
2022/01/04 11:39:50;;;;;;;0.47;0.45;;;;;;;;;;4979667;28;20057;-85
2022/01/04 11:42:31;;;;;;;0.70;0.70;;;;;;;;;;4979940;28;20058;-84
2022/01/04 11:44:57;;;;;;;1.48;0.80;;;;;;;;;;4981640;28;20049;-85
2022/01/04 11:47:26;;;;;;;0.57;0.57;;;;;;;;;;4982092;28;20031;-86
2022/01/04 11:50:10;;;;;;;0.52;0.52;;;;;;;;;;4968728;28;20398;-85
2022/01/04 11:52:43;;;;;;;1.63;0.47;;;;;;;;;;4960964;29;20651;-86
2022/01/04 11:55:17;;;;;;;0.40;0.40;;;;;;;;;;4957062;28;20082;-85
2022/01/04 11:57:46;;;;;;;0.70;0.70;;;;;;;;;;4962850;28;20035;-86
2022/01/04 12:00:22;;;;;;;0.98;0.60;;;;;;;;;;4959861;28;20518;-85
2022/01/04 12:03:01;;;;;;;3.95;0.50;;;;;;;;;;4960634;28;20251;-85
2022/01/04 12:05:27;;;;;;;0.47;0.47;;;;;;;;;;4959441;28;20037;-85
2022/01/04 12:07:55;;;;;;;0.40;0.40;;;;;;;;;;4958374;28;20446;-85
2022/01/04 12:10:21;;;;;;;0.70;0.60;;;;;;;;;;4956857;28;20380;-84
2022/01/04 12:13:00;;;;;;;1.23;0.60;;;;;;;;;;4955890;29;20050;-84
2022/01/04 12:15:36;;;;;;;0.43;0.43;;;;;;;;;;4955761;29;20015;-84
2022/01/04 12:18:02;;;;;;;0.60;0.60;;;;;;;;;;4956348;28;20475;-85
2022/01/04 12:20:43;;;;;;;0.85;0.50;;;;;;;;;;4952196;28;20174;-85
2022/01/04 12:23:09;;;;;;;;;;;;;;;;;;4953862;29;20034;-85
2022/01/04 12:25:37;;;;;;;0.80;0.63;;;;;;;;;;4955533;29;19911;-86
2022/01/04 12:28:16;;;;;;;0.82;0.60;;;;;;;;;;4956058;28;20402;-86
2022/01/04 12:30:42;;;;;;;0.60;0.60;;;;;;;;;;4955025;29;20038;-86
2022/01/04 12:33:26;;;;;;;4.05;0.82;;;;;;;;;;4952184;28;20023;-84
2022/01/04 12:35:52;;;;;;;1.23;0.63;;;;;;;;;;4957217;29;20031;-83
2022/01/04 12:38:18;;;;;;;1.05;0.80;;;;;;;;;;4956005;28;20038;-85
2022/01/04 12:40:51;;;;;;;0.65;0.65;;;;;;;;;;4956491;28;20024;-85
2022/01/04 12:43:17;;;;;;;0.73;0.73;;;;;;;;;;4959485;28;20662;-85
2022/01/04 12:45:43;;;;;;;0.70;0.70;;;;;;;;;;4944863;28;20028;-85
2022/01/04 12:48:09;;;;;;;0.95;0.70;;;;;;;;;;4940397;29;20127;-86
2022/01/04 12:50:36;;;;;;;1.88;0.60;;;;;;;;;;4953281;28;20039;-85
2022/01/04 12:53:04;;;;;;;1.27;0.90;;;;;;;;;;4950798;29;20373;-86
2022/01/04 12:55:30;;;;;;;1.00;0.70;;;;;;;;;;4961029;28;20019;-85
2022/01/04 12:57:56;;;;;;;0.77;0.60;;;;;;;;;;4957325;28;20023;-86
2022/01/04 13:00:22;;;;;;;1.05;0.80;;;;;;;;;;4952832;28;20075;-84
2022/01/04 13:02:48;;;;;;;0.93;0.70;;;;;;;;;;4965141;28;20427;-85
2022/01/04 13:05:18;;;;;;;1.67;0.60;;;;;;;;;;4951714;28;20420;-85
2022/01/04 13:07:45;;;;;;;1.23;1.00;;;;;;;;;;4948863;28;20101;-85
2022/01/04 13:10:12;;;;;;;2.92;1.10;;;;;;;;;;4937507;29;20032;-85
2022/01/04 13:12:49;;;;;;;2.15;1.27;;;;;;;;;;4955550;29;20396;-85
2022/01/04 13:15:16;;;;;;;0.98;0.90;;;;;;;;;;4958619;28;20051;-85
2022/01/04 13:17:46;;;;;;;1.05;0.73;;;;;;;;;;4957986;28;20108;-86
2022/01/04 13:20:14;;;;;;;6.97;2.63;;;;;;;;;;4957790;28;20089;-86
2022/01/04 13:22:40;;;;;;;1.02;0.80;;;;;;;;;;4957512;28;20089;-86
2022/01/04 13:25:07;;;;;;;0.90;0.70;;;;;;;;;;4957260;28;20027;-86
2022/01/04 13:27:40;;;;;;;1.02;0.80;;;;;;;;;;4946878;28;20055;-88
2022/01/04 13:30:10;;;;;;;1.92;1.23;;;;;;;;;;4953043;28;20032;-88
2022/01/04 13:32:39;;;;;;;2.05;1.00;;;;;;;;;;4959106;28;20030;-90
2022/01/04 13:35:26;;;;;;;1.02;0.88;;;;;;;;;;4951008;28;20115;-87
2022/01/04 13:37:54;;;;;;;0.63;0.63;;;;;;;;;;4964729;28;20046;-86
2022/01/04 13:40:21;;;;;;;1.08;0.90;;;;;;;;;;4977431;28;20026;-86
2022/01/04 13:42:48;;;;;;;1.00;0.90;;;;;;;;;;4949553;28;20032;-87
2022/01/04 13:45:16;;;;;;;0.93;0.93;;;;;;;;;;4937389;29;20027;-84
2022/01/04 13:47:44;;;;;;;2.83;1.00;;;;;;;;;;4937056;29;20055;-87
2022/01/04 13:50:13;;;;;;;1.05;0.95;;;;;;;;;;4951130;29;20031;-85
2022/01/04 13:52:39;;;;;;;0.90;0.80;;;;;;;;;;4955641;28;20031;-87
2022/01/04 13:55:05;;;;;;;1.45;1.00;;;;;;;;;;4951189;28;20041;-86
2022/01/04 13:57:32;;;;;;;3.33;1.02;;;;;;;;;;4961650;28;20019;-84
2022/01/04 13:59:58;;;;;;;7.65;1.77;;;;;;;;;;4977194;28;20011;-85
2022/01/04 14:02:25;;;;;;;0.80;0.80;;;;;;;;;;4978150;28;20022;-86
2022/01/04 14:05:11;;;;;;;0.93;0.90;;;;;;;;;;4960901;28;20395;-87
2022/01/04 14:07:37;;;;;;;0.60;0.60;;;;;;;;;;4956760;28;20510;-87
2022/01/04 14:10:03;;;;;;;0.60;0.60;;;;;;;;;;4956525;28;20394;-86
2022/01/04 14:12:29;;;;;;;0.70;0.70;;;;;;;;;;4957796;28;20418;-86
2022/01/04 14:14:57;;;;;;;1.75;0.98;;;;;;;;;;4961212;28;20141;-88
2022/01/04 14:17:24;;;;;;;1.77;1.27;;;;;;;;;;4955782;28;20188;-88
2022/01/04 14:19:55;;;;;;;4.95;2.17;;;;;;;;;;4955231;28;20039;-87
2022/01/04 14:22:31;;;;;;;8.38;4.53;;;;;;;;;;4956373;28;20035;-87
2022/01/04 14:25:06;;;;;;;1.42;1.33;;;;;;;;;;4957778;28;20043;-85
2022/01/04 14:27:43;;;;;;;3.35;1.08;;;;;;;;;;4958725;28;20081;-87
2022/01/04 14:30:10;;;;;;;3.17;1.08;;;;;;;;;;4956676;28;20067;-86
2022/01/04 14:32:38;;;;;;;4.57;1.60;;;;;;;;;;4956081;28;20039;-87
2022/01/04 14:35:07;;;;;;;1.20;1.10;;;;;;;;;;4956678;28;20027;-87
2022/01/04 14:37:34;;;;;;;1.65;1.20;;;;;;;;;;4954847;28;20023;-85
2022/01/04 14:40:00;;;;;;;1.95;1.02;;;;;;;;;;4955956;28;20035;-86
2022/01/04 14:42:27;;;;;;;1.50;1.15;;;;;;;;;;4956267;28;20033;-86
2022/01/04 14:44:53;;;;;;;1.45;1.08;;;;;;;;;;4955148;28;20027;-86
2022/01/04 14:47:19;;;;;;;1.20;1.00;;;;;;;;;;4954853;28;20027;-88
2022/01/04 14:49:45;;;;;;;1.45;0.98;;;;;;;;;;4956469;28;20720;-86